sensor_id;sensor_type;location;lat;lon;timestamp;P1;durP1;ratioP1;P2;durP2;ratioP2
41897;SDS011;27576;53.366;-1.498;2022-09-27T00:01:12;1.65;;;0.90;;
41897;SDS011;27576;53.366;-1.498;2022-09-27T00:03:38;2.33;;;0.90;;
41897;SDS011;27576;53.366;-1.498;2022-09-27T00:06:08;1.38;;;0.80;;
41897;SDS011;27576;53.366;-1.498;2022-09-27T00:08:54;0.75;;;0.75;;
41897;SDS011;27576;53.366;-1.498;2022-09-27T00:11:27;1.05;;;0.90;;
41897;SDS011;27576;53.366;-1.498;2022-09-27T00:13:56;4.72;;;0.90;;
41897;SDS011;27576;53.366;-1.498;2022-09-27T00:16:23;1.08;;;0.70;;
41897;SDS011;27576;53.366;-1.498;2022-09-27T00:18:50;2.55;;;0.90;;
41897;SDS011;27576;53.366;-1.498;2022-09-27T00:21:16;2.20;;;0.90;;
41897;SDS011;27576;53.366;-1.498;2022-09-27T00:23:41;2.10;;;0.95;;
41897;SDS011;27576;53.366;-1.498;2022-09-27T00:26:08;4.03;;;0.98;;
41897;SDS011;27576;53.366;-1.498;2022-09-27T00:28:36;1.05;;;0.70;;
41897;SDS011;27576;53.366;-1.498;2022-09-27T00:31:02;3.28;;;1.00;;
41897;SDS011;27576;53.366;-1.498;2022-09-27T00:33:27;1.50;;;1.00;;
41897;SDS011;27576;53.366;-1.498;2022-09-27T00:35:53;1.92;;;0.80;;
41897;SDS011;27576;53.366;-1.498;2022-09-27T00:38:18;3.17;;;0.70;;
41897;SDS011;27576;53.366;-1.498;2022-09-27T00:40:43;1.88;;;0.90;;
41897;SDS011;27576;53.366;-1.498;2022-09-27T00:43:15;2.45;;;0.80;;
41897;SDS011;27576;53.366;-1.498;2022-09-27T00:45:43;1.90;;;0.90;;
41897;SDS011;27576;53.366;-1.498;2022-09-27T00:48:28;4.10;;;0.90;;
41897;SDS011;27576;53.366;-1.498;2022-09-27T00:50:58;2.88;;;0.82;;
41897;SDS011;27576;53.366;-1.498;2022-09-27T00:53:30;2.08;;;0.80;;
41897;SDS011;27576;53.366;-1.498;2022-09-27T00:56:03;2.53;;;1.00;;
41897;SDS011;27576;53.366;-1.498;2022-09-27T00:59:08;2.53;;;0.90;;
41897;SDS011;27576;53.366;-1.498;2022-09-27T01:01:31;2.10;;;0.80;;
41897;SDS011;27576;53.366;-1.498;2022-09-27T01:04:00;3.50;;;0.85;;
41897;SDS011;27576;53.366;-1.498;2022-09-27T01:06:30;2.70;;;0.90;;
41897;SDS011;27576;53.366;-1.498;2022-09-27T01:08:56;2.40;;;1.05;;
41897;SDS011;27576;53.366;-1.498;2022-09-27T01:19:58;4.68;;;1.30;;
41897;SDS011;27576;53.366;-1.498;2022-09-27T01:34:47;2.22;;;1.08;;
41897;SDS011;27576;53.366;-1.498;2022-09-27T01:40:16;1.27;;;0.70;;
41897;SDS011;27576;53.366;-1.498;2022-09-27T01:42:56;2.55;;;0.90;;
41897;SDS011;27576;53.366;-1.498;2022-09-27T01:45:28;4.78;;;1.33;;
41897;SDS011;27576;53.366;-1.498;2022-09-27T01:48:02;2.88;;;1.00;;
41897;SDS011;27576;53.366;-1.498;2022-09-27T01:51:05;3.45;;;1.02;;
41897;SDS011;27576;53.366;-1.498;2022-09-27T01:53:33;2.00;;;1.10;;
41897;SDS011;27576;53.366;-1.498;2022-09-27T01:56:02;3.38;;;1.58;;
41897;SDS011;27576;53.366;-1.498;2022-09-27T01:58:33;3.05;;;1.20;;
41897;SDS011;27576;53.366;-1.498;2022-09-27T02:01:04;4.25;;;1.67;;
41897;SDS011;27576;53.366;-1.498;2022-09-27T02:03:32;2.20;;;1.63;;
41897;SDS011;27576;53.366;-1.498;2022-09-27T02:06:01;4.07;;;1.90;;
41897;SDS011;27576;53.366;-1.498;2022-09-27T02:08:42;2.35;;;1.40;;
41897;SDS011;27576;53.366;-1.498;2022-09-27T02:11:12;5.15;;;2.13;;
41897;SDS011;27576;53.366;-1.498;2022-09-27T02:14:02;5.15;;;1.75;;
41897;SDS011;27576;53.366;-1.498;2022-09-27T02:22:00;6.35;;;2.03;;
41897;SDS011;27576;53.366;-1.498;2022-09-27T02:30:03;3.38;;;1.63;;
41897;SDS011;27576;53.366;-1.498;2022-09-27T02:32:32;5.43;;;1.98;;
41897;SDS011;27576;53.366;-1.498;2022-09-27T02:34:59;6.25;;;2.08;;
41897;SDS011;27576;53.366;-1.498;2022-09-27T02:37:30;6.40;;;1.77;;
41897;SDS011;27576;53.366;-1.498;2022-09-27T02:39:56;5.43;;;2.00;;
41897;SDS011;27576;53.366;-1.498;2022-09-27T02:42:22;6.57;;;2.10;;
41897;SDS011;27576;53.366;-1.498;2022-09-27T02:44:48;3.33;;;1.60;;
41897;SDS011;27576;53.366;-1.498;2022-09-27T02:47:24;4.18;;;2.20;;
41897;SDS011;27576;53.366;-1.498;2022-09-27T02:58:46;3.25;;;1.73;;
41897;SDS011;27576;53.366;-1.498;2022-09-27T03:04:01;5.88;;;2.30;;
41897;SDS011;27576;53.366;-1.498;2022-09-27T03:06:29;5.13;;;1.85;;
41897;SDS011;27576;53.366;-1.498;2022-09-27T03:08:56;6.85;;;1.90;;
41897;SDS011;27576;53.366;-1.498;2022-09-27T03:11:22;4.55;;;1.35;;
41897;SDS011;27576;53.366;-1.498;2022-09-27T03:13:47;6.93;;;2.30;;
41897;SDS011;27576;53.366;-1.498;2022-09-27T03:16:12;4.18;;;1.65;;
41897;SDS011;27576;53.366;-1.498;2022-09-27T03:18:40;10.60;;;2.40;;
41897;SDS011;27576;53.366;-1.498;2022-09-27T03:21:05;10.00;;;2.60;;
41897;SDS011;27576;53.366;-1.498;2022-09-27T03:23:31;11.43;;;2.50;;
41897;SDS011;27576;53.366;-1.498;2022-09-27T03:25:56;9.18;;;2.35;;
41897;SDS011;27576;53.366;-1.498;2022-09-27T03:28:22;9.00;;;2.33;;
41897;SDS011;27576;53.366;-1.498;2022-09-27T03:30:48;7.80;;;1.80;;
41897;SDS011;27576;53.366;-1.498;2022-09-27T03:33:13;12.93;;;2.63;;
41897;SDS011;27576;53.366;-1.498;2022-09-27T03:35:39;9.32;;;2.22;;
41897;SDS011;27576;53.366;-1.498;2022-09-27T03:38:06;7.90;;;1.95;;
41897;SDS011;27576;53.366;-1.498;2022-09-27T03:40:32;7.18;;;2.30;;
41897;SDS011;27576;53.366;-1.498;2022-09-27T03:42:57;9.65;;;2.15;;
41897;SDS011;27576;53.366;-1.498;2022-09-27T03:45:23;8.18;;;1.95;;
41897;SDS011;27576;53.366;-1.498;2022-09-27T03:47:48;11.02;;;1.80;;
41897;SDS011;27576;53.366;-1.498;2022-09-27T03:50:14;10.02;;;2.17;;
41897;SDS011;27576;53.366;-1.498;2022-09-27T03:52:40;10.18;;;2.45;;
41897;SDS011;27576;53.366;-1.498;2022-09-27T03:55:07;10.00;;;1.75;;
41897;SDS011;27576;53.366;-1.498;2022-09-27T03:57:33;10.60;;;2.55;;
41897;SDS011;27576;53.366;-1.498;2022-09-27T03:59:59;5.32;;;2.00;;
41897;SDS011;27576;53.366;-1.498;2022-09-27T04:02:25;4.82;;;1.77;;
41897;SDS011;27576;53.366;-1.498;2022-09-27T04:04:51;10.98;;;2.33;;
41897;SDS011;27576;53.366;-1.498;2022-09-27T04:07:17;6.78;;;2.05;;
41897;SDS011;27576;53.366;-1.498;2022-09-27T04:09:42;6.95;;;2.20;;
41897;SDS011;27576;53.366;-1.498;2022-09-27T04:12:10;9.43;;;2.42;;
41897;SDS011;27576;53.366;-1.498;2022-09-27T04:14:36;8.40;;;2.53;;
41897;SDS011;27576;53.366;-1.498;2022-09-27T04:17:01;9.45;;;2.50;;
41897;SDS011;27576;53.366;-1.498;2022-09-27T04:19:27;9.13;;;2.38;;
41897;SDS011;27576;53.366;-1.498;2022-09-27T04:21:52;9.80;;;2.63;;
41897;SDS011;27576;53.366;-1.498;2022-09-27T04:24:17;8.68;;;2.58;;
41897;SDS011;27576;53.366;-1.498;2022-09-27T04:26:43;13.32;;;2.53;;
41897;SDS011;27576;53.366;-1.498;2022-09-27T04:29:08;13.68;;;3.10;;
41897;SDS011;27576;53.366;-1.498;2022-09-27T04:31:34;8.63;;;2.50;;
41897;SDS011;27576;53.366;-1.498;2022-09-27T04:34:02;9.52;;;2.75;;
41897;SDS011;27576;53.366;-1.498;2022-09-27T04:36:30;12.73;;;2.80;;
41897;SDS011;27576;53.366;-1.498;2022-09-27T04:38:56;10.98;;;2.78;;
41897;SDS011;27576;53.366;-1.498;2022-09-27T04:41:27;9.10;;;3.20;;
41897;SDS011;27576;53.366;-1.498;2022-09-27T04:43:56;8.30;;;2.28;;
41897;SDS011;27576;53.366;-1.498;2022-09-27T04:46:24;11.02;;;2.42;;
41897;SDS011;27576;53.366;-1.498;2022-09-27T04:48:50;14.65;;;2.88;;
41897;SDS011;27576;53.366;-1.498;2022-09-27T04:51:15;10.30;;;2.85;;
41897;SDS011;27576;53.366;-1.498;2022-09-27T04:53:45;9.40;;;2.38;;
41897;SDS011;27576;53.366;-1.498;2022-09-27T04:56:11;5.30;;;2.20;;
41897;SDS011;27576;53.366;-1.498;2022-09-27T04:58:37;10.43;;;3.08;;
41897;SDS011;27576;53.366;-1.498;2022-09-27T05:01:03;12.00;;;2.67;;
41897;SDS011;27576;53.366;-1.498;2022-09-27T05:03:29;13.15;;;3.40;;
41897;SDS011;27576;53.366;-1.498;2022-09-27T05:05:57;11.73;;;2.63;;
41897;SDS011;27576;53.366;-1.498;2022-09-27T05:08:23;10.35;;;3.28;;
41897;SDS011;27576;53.366;-1.498;2022-09-27T05:10:49;9.50;;;2.70;;
41897;SDS011;27576;53.366;-1.498;2022-09-27T05:13:15;8.30;;;2.90;;
41897;SDS011;27576;53.366;-1.498;2022-09-27T05:15:40;12.20;;;3.15;;
41897;SDS011;27576;53.366;-1.498;2022-09-27T05:18:06;12.15;;;2.90;;
41897;SDS011;27576;53.366;-1.498;2022-09-27T05:20:34;11.77;;;3.35;;
41897;SDS011;27576;53.366;-1.498;2022-09-27T05:23:00;6.45;;;2.92;;
41897;SDS011;27576;53.366;-1.498;2022-09-27T05:25:27;8.82;;;2.88;;
41897;SDS011;27576;53.366;-1.498;2022-09-27T05:27:52;8.82;;;2.40;;
41897;SDS011;27576;53.366;-1.498;2022-09-27T05:30:18;7.47;;;2.63;;
41897;SDS011;27576;53.366;-1.498;2022-09-27T05:32:44;11.40;;;3.60;;
41897;SDS011;27576;53.366;-1.498;2022-09-27T05:35:14;11.07;;;2.60;;
41897;SDS011;27576;53.366;-1.498;2022-09-27T05:37:41;10.48;;;3.03;;
41897;SDS011;27576;53.366;-1.498;2022-09-27T05:40:07;8.25;;;2.60;;
41897;SDS011;27576;53.366;-1.498;2022-09-27T05:42:33;12.45;;;2.92;;
41897;SDS011;27576;53.366;-1.498;2022-09-27T05:44:59;12.60;;;3.13;;
41897;SDS011;27576;53.366;-1.498;2022-09-27T05:47:25;4.38;;;2.20;;
41897;SDS011;27576;53.366;-1.498;2022-09-27T05:49:50;9.18;;;2.25;;
41897;SDS011;27576;53.366;-1.498;2022-09-27T05:52:16;5.70;;;2.35;;
41897;SDS011;27576;53.366;-1.498;2022-09-27T05:54:42;8.85;;;2.28;;
41897;SDS011;27576;53.366;-1.498;2022-09-27T05:57:07;8.93;;;2.22;;
41897;SDS011;27576;53.366;-1.498;2022-09-27T05:59:33;10.63;;;2.10;;
41897;SDS011;27576;53.366;-1.498;2022-09-27T06:01:58;7.90;;;2.15;;
41897;SDS011;27576;53.366;-1.498;2022-09-27T06:04:23;9.07;;;2.70;;
41897;SDS011;27576;53.366;-1.498;2022-09-27T06:06:49;6.28;;;2.20;;
41897;SDS011;27576;53.366;-1.498;2022-09-27T06:09:14;8.90;;;2.75;;
41897;SDS011;27576;53.366;-1.498;2022-09-27T06:11:41;6.97;;;1.70;;
41897;SDS011;27576;53.366;-1.498;2022-09-27T06:14:09;10.65;;;2.25;;
41897;SDS011;27576;53.366;-1.498;2022-09-27T06:16:35;12.82;;;2.28;;
41897;SDS011;27576;53.366;-1.498;2022-09-27T06:19:01;11.32;;;2.42;;
41897;SDS011;27576;53.366;-1.498;2022-09-27T06:21:28;6.72;;;2.03;;
41897;SDS011;27576;53.366;-1.498;2022-09-27T06:23:55;11.25;;;2.45;;
41897;SDS011;27576;53.366;-1.498;2022-09-27T06:26:23;8.43;;;2.25;;
41897;SDS011;27576;53.366;-1.498;2022-09-27T06:28:51;7.25;;;1.92;;
41897;SDS011;27576;53.366;-1.498;2022-09-27T06:31:16;6.75;;;2.30;;
41897;SDS011;27576;53.366;-1.498;2022-09-27T06:33:41;8.15;;;2.40;;
41897;SDS011;27576;53.366;-1.498;2022-09-27T06:36:07;5.55;;;2.17;;
41897;SDS011;27576;53.366;-1.498;2022-09-27T06:38:32;6.10;;;2.08;;
41897;SDS011;27576;53.366;-1.498;2022-09-27T06:41:02;8.32;;;2.10;;
41897;SDS011;27576;53.366;-1.498;2022-09-27T06:43:28;4.25;;;2.13;;
41897;SDS011;27576;53.366;-1.498;2022-09-27T06:45:57;11.02;;;2.72;;
41897;SDS011;27576;53.366;-1.498;2022-09-27T06:48:28;5.22;;;2.33;;
41897;SDS011;27576;53.366;-1.498;2022-09-27T06:50:55;8.55;;;2.30;;
41897;SDS011;27576;53.366;-1.498;2022-09-27T06:53:21;6.00;;;1.90;;
41897;SDS011;27576;53.366;-1.498;2022-09-27T06:55:47;5.28;;;1.77;;
41897;SDS011;27576;53.366;-1.498;2022-09-27T06:58:12;4.40;;;1.80;;
41897;SDS011;27576;53.366;-1.498;2022-09-27T07:00:56;5.82;;;1.73;;
41897;SDS011;27576;53.366;-1.498;2022-09-27T07:03:22;6.68;;;1.63;;
41897;SDS011;27576;53.366;-1.498;2022-09-27T07:05:59;10.23;;;2.22;;
41897;SDS011;27576;53.366;-1.498;2022-09-27T07:08:27;13.07;;;2.28;;
41897;SDS011;27576;53.366;-1.498;2022-09-27T07:10:54;5.65;;;1.60;;
41897;SDS011;27576;53.366;-1.498;2022-09-27T07:13:20;7.18;;;1.98;;
41897;SDS011;27576;53.366;-1.498;2022-09-27T07:15:46;5.18;;;1.73;;
41897;SDS011;27576;53.366;-1.498;2022-09-27T07:18:12;3.47;;;1.55;;
41897;SDS011;27576;53.366;-1.498;2022-09-27T07:20:37;6.30;;;2.10;;
41897;SDS011;27576;53.366;-1.498;2022-09-27T07:23:04;7.75;;;2.40;;
41897;SDS011;27576;53.366;-1.498;2022-09-27T07:25:31;6.93;;;1.70;;
41897;SDS011;27576;53.366;-1.498;2022-09-27T07:28:00;6.45;;;1.80;;
41897;SDS011;27576;53.366;-1.498;2022-09-27T07:30:27;6.80;;;2.60;;
41897;SDS011;27576;53.366;-1.498;2022-09-27T07:32:56;6.22;;;1.77;;
41897;SDS011;27576;53.366;-1.498;2022-09-27T07:35:23;7.63;;;2.67;;
41897;SDS011;27576;53.366;-1.498;2022-09-27T07:37:49;9.90;;;2.28;;
41897;SDS011;27576;53.366;-1.498;2022-09-27T07:40:15;8.38;;;2.42;;
41897;SDS011;27576;53.366;-1.498;2022-09-27T07:42:41;8.15;;;1.92;;
41897;SDS011;27576;53.366;-1.498;2022-09-27T07:45:06;7.28;;;1.92;;
41897;SDS011;27576;53.366;-1.498;2022-09-27T07:47:33;7.57;;;2.00;;
41897;SDS011;27576;53.366;-1.498;2022-09-27T07:49:59;8.77;;;2.03;;
41897;SDS011;27576;53.366;-1.498;2022-09-27T07:52:24;8.18;;;2.00;;
41897;SDS011;27576;53.366;-1.498;2022-09-27T07:54:50;3.47;;;1.67;;
41897;SDS011;27576;53.366;-1.498;2022-09-27T07:57:15;7.78;;;1.90;;
41897;SDS011;27576;53.366;-1.498;2022-09-27T07:59:41;8.30;;;2.10;;
41897;SDS011;27576;53.366;-1.498;2022-09-27T08:02:13;6.00;;;1.63;;
41897;SDS011;27576;53.366;-1.498;2022-09-27T08:04:41;6.65;;;1.83;;
41897;SDS011;27576;53.366;-1.498;2022-09-27T08:07:13;6.85;;;2.30;;
41897;SDS011;27576;53.366;-1.498;2022-09-27T08:09:38;10.20;;;2.13;;
41897;SDS011;27576;53.366;-1.498;2022-09-27T08:12:04;8.30;;;2.25;;
41897;SDS011;27576;53.366;-1.498;2022-09-27T08:14:29;6.35;;;1.83;;
41897;SDS011;27576;53.366;-1.498;2022-09-27T08:16:55;7.97;;;2.33;;
41897;SDS011;27576;53.366;-1.498;2022-09-27T08:19:21;5.28;;;2.10;;
41897;SDS011;27576;53.366;-1.498;2022-09-27T08:21:46;5.53;;;2.10;;
41897;SDS011;27576;53.366;-1.498;2022-09-27T08:24:12;6.80;;;2.70;;
41897;SDS011;27576;53.366;-1.498;2022-09-27T08:26:38;5.60;;;2.15;;
41897;SDS011;27576;53.366;-1.498;2022-09-27T08:29:04;8.35;;;2.40;;
41897;SDS011;27576;53.366;-1.498;2022-09-27T08:31:29;4.20;;;1.80;;
41897;SDS011;27576;53.366;-1.498;2022-09-27T08:33:54;5.78;;;1.65;;
41897;SDS011;27576;53.366;-1.498;2022-09-27T08:36:21;5.03;;;1.80;;
41897;SDS011;27576;53.366;-1.498;2022-09-27T08:38:50;7.80;;;1.92;;
41897;SDS011;27576;53.366;-1.498;2022-09-27T08:49:25;8.20;;;1.60;;
41897;SDS011;27576;53.366;-1.498;2022-09-27T08:51:57;7.63;;;2.05;;
41897;SDS011;27576;53.366;-1.498;2022-09-27T08:54:25;6.80;;;1.90;;
41897;SDS011;27576;53.366;-1.498;2022-09-27T08:56:57;10.75;;;2.03;;
41897;SDS011;27576;53.366;-1.498;2022-09-27T08:59:28;4.53;;;1.50;;
41897;SDS011;27576;53.366;-1.498;2022-09-27T09:01:58;6.07;;;1.58;;
41897;SDS011;27576;53.366;-1.498;2022-09-27T09:07:08;5.80;;;1.20;;
41897;SDS011;27576;53.366;-1.498;2022-09-27T09:26:59;3.75;;;1.38;;
41897;SDS011;27576;53.366;-1.498;2022-09-27T09:34:58;7.38;;;1.63;;
41897;SDS011;27576;53.366;-1.498;2022-09-27T09:37:41;4.78;;;1.33;;
41897;SDS011;27576;53.366;-1.498;2022-09-27T09:43:04;5.22;;;1.27;;
41897;SDS011;27576;53.366;-1.498;2022-09-27T09:45:39;8.02;;;1.75;;
41897;SDS011;27576;53.366;-1.498;2022-09-27T09:48:22;4.20;;;1.40;;
41897;SDS011;27576;53.366;-1.498;2022-09-27T09:50:48;6.32;;;1.40;;
41897;SDS011;27576;53.366;-1.498;2022-09-27T09:54:01;7.40;;;1.40;;
41897;SDS011;27576;53.366;-1.498;2022-09-27T09:56:14;5.38;;;1.10;;
41897;SDS011;27576;53.366;-1.498;2022-09-27T10:01:20;4.72;;;1.05;;
41897;SDS011;27576;53.366;-1.498;2022-09-27T10:03:50;1.73;;;0.90;;
41897;SDS011;27576;53.366;-1.498;2022-09-27T10:06:16;3.00;;;1.13;;
41897;SDS011;27576;53.366;-1.498;2022-09-27T10:08:43;2.30;;;1.02;;
41897;SDS011;27576;53.366;-1.498;2022-09-27T10:11:19;7.15;;;1.63;;
41897;SDS011;27576;53.366;-1.498;2022-09-27T10:13:48;4.20;;;1.13;;
41897;SDS011;27576;53.366;-1.498;2022-09-27T10:16:15;7.10;;;1.75;;
41897;SDS011;27576;53.366;-1.498;2022-09-27T10:18:43;4.97;;;1.35;;
41897;SDS011;27576;53.366;-1.498;2022-09-27T10:21:11;4.55;;;0.98;;
41897;SDS011;27576;53.366;-1.498;2022-09-27T10:24:00;3.08;;;1.00;;
41897;SDS011;27576;53.366;-1.498;2022-09-27T10:26:28;3.47;;;0.93;;
41897;SDS011;27576;53.366;-1.498;2022-09-27T10:28:55;3.47;;;0.88;;
41897;SDS011;27576;53.366;-1.498;2022-09-27T10:31:21;5.97;;;1.33;;
41897;SDS011;27576;53.366;-1.498;2022-09-27T10:33:57;6.50;;;1.20;;
41897;SDS011;27576;53.366;-1.498;2022-09-27T10:36:29;4.78;;;1.42;;
41897;SDS011;27576;53.366;-1.498;2022-09-27T10:38:58;4.53;;;1.10;;
41897;SDS011;27576;53.366;-1.498;2022-09-27T10:41:31;4.32;;;1.10;;
41897;SDS011;27576;53.366;-1.498;2022-09-27T10:46:44;4.22;;;1.10;;
41897;SDS011;27576;53.366;-1.498;2022-09-27T10:51:50;3.13;;;1.10;;
41897;SDS011;27576;53.366;-1.498;2022-09-27T10:54:19;3.67;;;1.42;;
41897;SDS011;27576;53.366;-1.498;2022-09-27T10:56:58;3.15;;;1.00;;
41897;SDS011;27576;53.366;-1.498;2022-09-27T10:59:28;3.35;;;0.98;;
41897;SDS011;27576;53.366;-1.498;2022-09-27T11:01:55;3.03;;;0.80;;
41897;SDS011;27576;53.366;-1.498;2022-09-27T11:04:27;2.95;;;1.10;;
41897;SDS011;27576;53.366;-1.498;2022-09-27T11:09:48;3.53;;;1.20;;
41897;SDS011;27576;53.366;-1.498;2022-09-27T11:12:18;3.78;;;0.80;;
41897;SDS011;27576;53.366;-1.498;2022-09-27T11:14:57;3.03;;;1.00;;
41897;SDS011;27576;53.366;-1.498;2022-09-27T11:17:42;2.58;;;1.10;;
41897;SDS011;27576;53.366;-1.498;2022-09-27T11:20:23;5.82;;;1.00;;
41897;SDS011;27576;53.366;-1.498;2022-09-27T11:25:37;5.43;;;1.25;;
41897;SDS011;27576;53.366;-1.498;2022-09-27T11:30:48;6.97;;;1.38;;
41897;SDS011;27576;53.366;-1.498;2022-09-27T11:33:31;6.38;;;1.30;;
41897;SDS011;27576;53.366;-1.498;2022-09-27T11:44:34;1.92;;;1.02;;
41897;SDS011;27576;53.366;-1.498;2022-09-27T11:55:44;5.70;;;1.08;;
41897;SDS011;27576;53.366;-1.498;2022-09-27T12:06:56;5.28;;;1.10;;
41897;SDS011;27576;53.366;-1.498;2022-09-27T12:09:31;5.13;;;1.13;;
41897;SDS011;27576;53.366;-1.498;2022-09-27T12:12:04;3.67;;;1.40;;
41897;SDS011;27576;53.366;-1.498;2022-09-27T12:14:39;4.00;;;0.90;;
41897;SDS011;27576;53.366;-1.498;2022-09-27T12:17:16;3.83;;;1.15;;
41897;SDS011;27576;53.366;-1.498;2022-09-27T12:19:46;8.25;;;1.45;;
41897;SDS011;27576;53.366;-1.498;2022-09-27T12:22:18;2.55;;;1.05;;
41897;SDS011;27576;53.366;-1.498;2022-09-27T12:24:50;3.25;;;0.80;;
41897;SDS011;27576;53.366;-1.498;2022-09-27T12:27:38;4.38;;;0.68;;
41897;SDS011;27576;53.366;-1.498;2022-09-27T12:30:10;2.58;;;0.98;;
41897;SDS011;27576;53.366;-1.498;2022-09-27T12:37:52;2.95;;;0.90;;
41897;SDS011;27576;53.366;-1.498;2022-09-27T12:51:35;2.60;;;0.68;;
41897;SDS011;27576;53.366;-1.498;2022-09-27T12:56:43;2.83;;;0.70;;
41897;SDS011;27576;53.366;-1.498;2022-09-27T12:59:21;4.75;;;1.10;;
41897;SDS011;27576;53.366;-1.498;2022-09-27T13:10:39;3.85;;;0.70;;
41897;SDS011;27576;53.366;-1.498;2022-09-27T13:13:17;3.88;;;0.82;;
41897;SDS011;27576;53.366;-1.498;2022-09-27T13:15:45;2.55;;;0.80;;
41897;SDS011;27576;53.366;-1.498;2022-09-27T13:18:31;2.92;;;0.90;;
41897;SDS011;27576;53.366;-1.498;2022-09-27T13:21:14;1.98;;;0.80;;
41897;SDS011;27576;53.366;-1.498;2022-09-27T13:29:51;1.75;;;0.70;;
41897;SDS011;27576;53.366;-1.498;2022-09-27T13:32:30;4.05;;;1.00;;
41897;SDS011;27576;53.366;-1.498;2022-09-27T13:34:58;2.40;;;0.90;;
41897;SDS011;27576;53.366;-1.498;2022-09-27T13:37:45;5.30;;;0.90;;
41897;SDS011;27576;53.366;-1.498;2022-09-27T13:41:11;2.58;;;0.93;;
41897;SDS011;27576;53.366;-1.498;2022-09-27T13:45:39;4.97;;;1.20;;
41897;SDS011;27576;53.366;-1.498;2022-09-27T13:50:51;3.22;;;0.95;;
41897;SDS011;27576;53.366;-1.498;2022-09-27T13:55:54;2.30;;;1.02;;
41897;SDS011;27576;53.366;-1.498;2022-09-27T14:03:46;2.47;;;0.82;;
41897;SDS011;27576;53.366;-1.498;2022-09-27T14:06:16;4.13;;;1.23;;
41897;SDS011;27576;53.366;-1.498;2022-09-27T14:11:23;4.50;;;1.08;;
41897;SDS011;27576;53.366;-1.498;2022-09-27T14:13:52;6.50;;;1.23;;
41897;SDS011;27576;53.366;-1.498;2022-09-27T14:16:18;2.83;;;1.00;;
41897;SDS011;27576;53.366;-1.498;2022-09-27T14:18:48;8.05;;;1.40;;
41897;SDS011;27576;53.366;-1.498;2022-09-27T14:29:31;4.85;;;1.20;;
41897;SDS011;27576;53.366;-1.498;2022-09-27T14:32:17;4.22;;;1.67;;
41897;SDS011;27576;53.366;-1.498;2022-09-27T14:34:45;4.45;;;1.23;;
41897;SDS011;27576;53.366;-1.498;2022-09-27T14:37:22;3.60;;;1.10;;
41897;SDS011;27576;53.366;-1.498;2022-09-27T14:40:17;3.80;;;1.25;;
41897;SDS011;27576;53.366;-1.498;2022-09-27T14:42:45;5.18;;;0.93;;
41897;SDS011;27576;53.366;-1.498;2022-09-27T14:45:17;5.78;;;1.00;;
41897;SDS011;27576;53.366;-1.498;2022-09-27T14:47:47;5.38;;;1.00;;
41897;SDS011;27576;53.366;-1.498;2022-09-27T14:50:18;5.80;;;1.00;;
41897;SDS011;27576;53.366;-1.498;2022-09-27T14:52:44;3.70;;;1.23;;
41897;SDS011;27576;53.366;-1.498;2022-09-27T14:55:15;3.03;;;1.20;;
41897;SDS011;27576;53.366;-1.498;2022-09-27T14:57:50;4.30;;;1.00;;
41897;SDS011;27576;53.366;-1.498;2022-09-27T15:00:24;2.10;;;0.88;;
41897;SDS011;27576;53.366;-1.498;2022-09-27T15:02:56;2.50;;;0.90;;
41897;SDS011;27576;53.366;-1.498;2022-09-27T15:05:25;7.10;;;1.60;;
41897;SDS011;27576;53.366;-1.498;2022-09-27T15:07:52;3.22;;;1.10;;
41897;SDS011;27576;53.366;-1.498;2022-09-27T15:10:24;5.43;;;1.27;;
41897;SDS011;27576;53.366;-1.498;2022-09-27T15:12:52;2.72;;;0.93;;
41897;SDS011;27576;53.366;-1.498;2022-09-27T15:15:22;2.83;;;1.00;;
41897;SDS011;27576;53.366;-1.498;2022-09-27T15:17:50;3.47;;;1.20;;
41897;SDS011;27576;53.366;-1.498;2022-09-27T15:20:21;2.50;;;1.02;;
41897;SDS011;27576;53.366;-1.498;2022-09-27T15:22:56;3.83;;;1.35;;
41897;SDS011;27576;53.366;-1.498;2022-09-27T15:25:27;5.22;;;1.52;;
41897;SDS011;27576;53.366;-1.498;2022-09-27T15:28:05;5.07;;;1.10;;
41897;SDS011;27576;53.366;-1.498;2022-09-27T15:30:41;3.92;;;0.88;;
41897;SDS011;27576;53.366;-1.498;2022-09-27T15:33:18;1.35;;;0.90;;
41897;SDS011;27576;53.366;-1.498;2022-09-27T15:35:47;3.60;;;0.90;;
41897;SDS011;27576;53.366;-1.498;2022-09-27T15:43:36;5.00;;;0.90;;
41897;SDS011;27576;53.366;-1.498;2022-09-27T15:51:51;3.20;;;0.82;;
41897;SDS011;27576;53.366;-1.498;2022-09-27T15:54:19;1.98;;;1.10;;
41897;SDS011;27576;53.366;-1.498;2022-09-27T15:56:46;4.82;;;1.45;;
41897;SDS011;27576;53.366;-1.498;2022-09-27T15:59:22;2.75;;;1.23;;
41897;SDS011;27576;53.366;-1.498;2022-09-27T16:01:51;2.35;;;1.05;;
41897;SDS011;27576;53.366;-1.498;2022-09-27T16:04:19;11.88;;;1.88;;
41897;SDS011;27576;53.366;-1.498;2022-09-27T16:06:45;3.67;;;1.30;;
41897;SDS011;27576;53.366;-1.498;2022-09-27T16:09:15;5.03;;;1.50;;
41897;SDS011;27576;53.366;-1.498;2022-09-27T16:11:46;5.75;;;1.63;;
41897;SDS011;27576;53.366;-1.498;2022-09-27T16:14:12;7.90;;;1.55;;
41897;SDS011;27576;53.366;-1.498;2022-09-27T16:16:42;5.13;;;1.80;;
41897;SDS011;27576;53.366;-1.498;2022-09-27T16:19:10;4.82;;;1.75;;
41897;SDS011;27576;53.366;-1.498;2022-09-27T16:21:36;4.13;;;1.10;;
41897;SDS011;27576;53.366;-1.498;2022-09-27T16:24:02;3.33;;;1.73;;
41897;SDS011;27576;53.366;-1.498;2022-09-27T16:26:28;5.18;;;1.35;;
41897;SDS011;27576;53.366;-1.498;2022-09-27T16:28:53;4.40;;;1.33;;
41897;SDS011;27576;53.366;-1.498;2022-09-27T16:31:19;5.43;;;1.80;;
41897;SDS011;27576;53.366;-1.498;2022-09-27T16:33:46;4.88;;;1.23;;
41897;SDS011;27576;53.366;-1.498;2022-09-27T16:36:13;5.47;;;1.50;;
41897;SDS011;27576;53.366;-1.498;2022-09-27T16:38:43;6.30;;;1.95;;
41897;SDS011;27576;53.366;-1.498;2022-09-27T16:41:11;3.47;;;1.23;;
41897;SDS011;27576;53.366;-1.498;2022-09-27T16:43:37;3.55;;;1.50;;
41897;SDS011;27576;53.366;-1.498;2022-09-27T16:46:03;6.25;;;1.33;;
41897;SDS011;27576;53.366;-1.498;2022-09-27T16:48:30;7.72;;;1.48;;
41897;SDS011;27576;53.366;-1.498;2022-09-27T16:51:01;6.65;;;1.60;;
41897;SDS011;27576;53.366;-1.498;2022-09-27T16:53:46;5.30;;;1.45;;
41897;SDS011;27576;53.366;-1.498;2022-09-27T16:56:12;6.18;;;1.67;;
41897;SDS011;27576;53.366;-1.498;2022-09-27T16:58:37;5.65;;;1.73;;
41897;SDS011;27576;53.366;-1.498;2022-09-27T17:01:03;8.82;;;2.65;;
41897;SDS011;27576;53.366;-1.498;2022-09-27T17:03:28;5.25;;;1.52;;
41897;SDS011;27576;53.366;-1.498;2022-09-27T17:05:54;6.85;;;1.60;;
41897;SDS011;27576;53.366;-1.498;2022-09-27T17:08:25;5.93;;;1.35;;
41897;SDS011;27576;53.366;-1.498;2022-09-27T17:10:50;6.28;;;1.50;;
41897;SDS011;27576;53.366;-1.498;2022-09-27T17:13:15;10.18;;;1.60;;
41897;SDS011;27576;53.366;-1.498;2022-09-27T17:15:41;5.88;;;1.75;;
41897;SDS011;27576;53.366;-1.498;2022-09-27T17:18:06;4.82;;;1.58;;
41897;SDS011;27576;53.366;-1.498;2022-09-27T17:20:32;6.72;;;1.67;;
41897;SDS011;27576;53.366;-1.498;2022-09-27T17:22:57;4.40;;;1.52;;
41897;SDS011;27576;53.366;-1.498;2022-09-27T17:25:23;4.05;;;1.33;;
41897;SDS011;27576;53.366;-1.498;2022-09-27T17:27:48;9.52;;;1.67;;
41897;SDS011;27576;53.366;-1.498;2022-09-27T17:30:13;5.32;;;1.60;;
41897;SDS011;27576;53.366;-1.498;2022-09-27T17:32:39;4.15;;;1.60;;
41897;SDS011;27576;53.366;-1.498;2022-09-27T17:35:04;4.07;;;2.05;;
41897;SDS011;27576;53.366;-1.498;2022-09-27T17:37:33;7.53;;;2.13;;
41897;SDS011;27576;53.366;-1.498;2022-09-27T17:39:59;4.07;;;1.80;;
41897;SDS011;27576;53.366;-1.498;2022-09-27T17:42:24;7.10;;;2.65;;
41897;SDS011;27576;53.366;-1.498;2022-09-27T17:44:50;5.55;;;2.55;;
41897;SDS011;27576;53.366;-1.498;2022-09-27T17:47:15;8.02;;;1.80;;
41897;SDS011;27576;53.366;-1.498;2022-09-27T17:49:59;4.35;;;1.60;;
41897;SDS011;27576;53.366;-1.498;2022-09-27T17:52:43;5.20;;;2.00;;
41897;SDS011;27576;53.366;-1.498;2022-09-27T17:55:08;6.68;;;2.20;;
41897;SDS011;27576;53.366;-1.498;2022-09-27T17:57:34;5.55;;;1.77;;
41897;SDS011;27576;53.366;-1.498;2022-09-27T17:59:59;7.88;;;1.40;;